createdAt,value
2023-02-18T00:00:43.476Z,8.85
2023-02-18T00:02:46.171Z,13.60
2023-02-18T00:04:47.686Z,15.40
2023-02-18T00:06:49.208Z,9.77
2023-02-18T00:08:52.059Z,11.05
2023-02-18T00:10:54.003Z,8.50
2023-02-18T00:12:55.667Z,10.85
2023-02-18T00:14:57.908Z,8.07
2023-02-18T00:16:59.342Z,11.45
2023-02-18T00:19:04.801Z,10.27
2023-02-18T00:21:08.671Z,5.88
2023-02-18T00:23:10.159Z,10.73
2023-02-18T00:25:11.629Z,11.90
2023-02-18T00:27:13.081Z,12.65
2023-02-18T00:29:14.738Z,13.20
2023-02-18T00:31:19.609Z,11.93
2023-02-18T00:33:21.492Z,13.38
2023-02-18T00:35:23.034Z,12.60
2023-02-18T00:37:24.510Z,8.57
2023-02-18T00:39:26.191Z,10.05
2023-02-18T00:41:29.135Z,11.10
2023-02-18T00:43:30.811Z,7.43
2023-02-18T00:45:32.289Z,9.90
2023-02-18T00:47:33.742Z,13.50
2023-02-18T00:49:35.657Z,9.35
2023-02-18T00:51:37.198Z,20.17
2023-02-18T00:53:39.296Z,12.55
2023-02-18T00:55:45.316Z,10.18
2023-02-18T00:57:46.758Z,6.65
2023-02-18T00:59:48.252Z,11.57
2023-02-18T01:01:49.753Z,12.68
2023-02-18T01:03:51.495Z,16.63
2023-02-18T01:05:53.359Z,12.98
2023-02-18T01:07:54.915Z,10.73
2023-02-18T01:09:56.389Z,9.68
2023-02-18T01:11:57.852Z,14.38
2023-02-18T01:13:59.339Z,11.07
2023-02-18T01:16:00.909Z,15.25
2023-02-18T01:18:02.401Z,8.23
2023-02-18T01:20:04.194Z,8.07
2023-02-18T01:22:06.804Z,18.65
2023-02-18T01:24:08.254Z,10.75
2023-02-18T01:26:10.954Z,10.77
2023-02-18T01:28:14.181Z,13.38
2023-02-18T01:30:17.502Z,11.20
2023-02-18T01:32:19.157Z,14.20
2023-02-18T01:34:20.706Z,16.40
2023-02-18T01:36:22.235Z,10.70
2023-02-18T01:38:23.722Z,15.02
2023-02-18T01:40:28.545Z,10.48
2023-02-18T01:42:30.374Z,12.40
2023-02-18T01:44:34.977Z,12.13
2023-02-18T01:46:36.448Z,13.95
2023-02-18T01:48:50.127Z,12.82
2023-02-18T01:50:56.987Z,13.05
2023-02-18T01:52:58.612Z,10.10
2023-02-18T01:55:00.326Z,13.52
2023-02-18T01:57:09.278Z,10.80
2023-02-18T01:59:18.037Z,9.90
2023-02-18T02:01:19.538Z,8.88
2023-02-18T02:03:21.139Z,15.70
2023-02-18T02:05:22.822Z,8.80
2023-02-18T02:07:26.796Z,14.57
2023-02-18T02:09:31.018Z,9.50
2023-02-18T02:11:49.365Z,9.85
2023-02-18T02:14:23.578Z,8.02
2023-02-18T02:16:28.106Z,10.65
2023-02-18T02:18:38.756Z,16.17
2023-02-18T02:21:07.343Z,10.63
2023-02-18T02:23:21.086Z,15.48
2023-02-18T02:25:34.377Z,12.77
2023-02-18T02:28:14.696Z,12.07
2023-02-18T02:30:16.149Z,14.48
2023-02-18T02:32:48.644Z,9.73
2023-02-18T02:34:56.349Z,12.68
2023-02-18T02:37:00.501Z,10.45
2023-02-18T02:39:25.520Z,13.00
2023-02-18T02:41:51.600Z,7.20
2023-02-18T02:44:20.589Z,12.13
2023-02-18T02:46:28.475Z,10.45
2023-02-18T02:48:32.902Z,14.17
2023-02-18T02:50:46.433Z,15.05
2023-02-18T02:52:57.203Z,10.65
2023-02-18T02:54:58.914Z,10.13
2023-02-18T02:57:18.683Z,12.65
2023-02-18T02:59:25.363Z,10.45
2023-02-18T03:01:58.826Z,13.48
2023-02-18T03:04:52.661Z,9.73
2023-02-18T03:07:09.756Z,10.05
2023-02-18T03:09:21.981Z,8.30
2023-02-18T03:11:23.718Z,7.65
2023-02-18T03:14:00.568Z,7.75
2023-02-18T03:16:24.160Z,10.30
2023-02-18T03:18:46.954Z,11.52
2023-02-18T03:20:57.308Z,10.90
2023-02-18T03:23:03.263Z,7.75
2023-02-18T03:25:05.906Z,16.45
2023-02-18T03:27:32.252Z,7.50
2023-02-18T03:29:35.097Z,12.10
2023-02-18T03:31:39.152Z,7.93
2023-02-18T03:33:46.264Z,9.05
2023-02-18T03:35:49.858Z,8.32
2023-02-18T03:38:01.096Z,8.20
2023-02-18T03:40:03.791Z,10.50
2023-02-18T03:42:05.604Z,12.38
2023-02-18T03:44:08.857Z,7.80
2023-02-18T03:46:10.668Z,15.98
2023-02-18T03:48:12.347Z,10.43
2023-02-18T03:50:13.936Z,11.82
2023-02-18T03:52:15.454Z,8.43
2023-02-18T03:54:16.965Z,9.00
2023-02-18T03:56:19.194Z,12.45
2023-02-18T03:58:20.731Z,8.13
2023-02-18T04:00:22.283Z,13.43
2023-02-18T04:02:23.745Z,9.52
2023-02-18T04:04:25.440Z,8.88
2023-02-18T04:06:26.984Z,9.15
2023-02-18T04:08:28.474Z,7.55
2023-02-18T04:10:29.956Z,9.55
2023-02-18T04:12:31.463Z,10.85
2023-02-18T04:14:32.978Z,9.38
2023-02-18T04:16:34.550Z,7.90
2023-02-18T04:18:36.052Z,6.75
2023-02-18T04:20:37.762Z,14.73
2023-02-18T04:22:39.440Z,8.93
2023-02-18T04:24:40.955Z,10.30
2023-02-18T04:26:42.429Z,21.30
2023-02-18T04:28:43.902Z,13.20
2023-02-18T04:30:47.318Z,9.32
2023-02-18T04:32:48.872Z,14.10
2023-02-18T04:34:50.317Z,9.57
2023-02-18T04:36:51.942Z,13.75
2023-02-18T04:38:53.493Z,6.68
2023-02-18T04:40:54.978Z,9.35
2023-02-18T04:43:00.111Z,13.52
2023-02-18T04:45:01.632Z,9.75
2023-02-18T04:47:04.705Z,10.02
2023-02-18T04:49:06.233Z,11.02
2023-02-18T04:51:07.962Z,17.60
2023-02-18T04:53:09.439Z,8.13
2023-02-18T04:55:10.998Z,10.68
2023-02-18T04:57:12.823Z,20.75
2023-02-18T04:59:14.334Z,13.10
2023-02-18T05:01:15.910Z,8.50
2023-02-18T05:03:17.557Z,7.45
2023-02-18T05:05:19.070Z,6.85
2023-02-18T05:07:20.526Z,7.65
2023-02-18T05:09:22.074Z,6.07
2023-02-18T05:11:23.732Z,12.02
2023-02-18T05:13:25.212Z,15.50
2023-02-18T05:15:26.833Z,18.42
2023-02-18T05:17:28.372Z,12.85
2023-02-18T05:19:29.961Z,10.23
2023-02-18T05:21:31.974Z,13.45
2023-02-18T05:23:33.608Z,6.60
2023-02-18T05:25:35.164Z,16.95
2023-02-18T05:27:36.613Z,12.75
2023-02-18T05:29:38.118Z,10.35
2023-02-18T05:31:39.802Z,10.00
2023-02-18T05:33:41.533Z,9.20
2023-02-18T05:35:42.993Z,9.75
2023-02-18T05:37:44.504Z,8.50
2023-02-18T05:39:46.139Z,7.63
2023-02-18T05:41:47.596Z,7.70
2023-02-18T05:44:07.607Z,12.35
2023-02-18T05:46:09.392Z,13.20
2023-02-18T05:48:11.050Z,12.35
2023-02-18T05:50:12.700Z,20.17
2023-02-18T05:52:14.273Z,9.18
2023-02-18T05:54:15.719Z,12.88
2023-02-18T05:56:17.187Z,10.05
2023-02-18T05:58:18.680Z,9.60
2023-02-18T06:00:20.990Z,12.05
2023-02-18T06:02:22.504Z,10.38
2023-02-18T06:04:24.261Z,8.88
2023-02-18T06:06:25.722Z,14.90
2023-02-18T06:08:27.275Z,13.32
2023-02-18T06:10:28.759Z,9.82
2023-02-18T06:12:30.422Z,8.30
2023-02-18T06:14:31.985Z,10.73
2023-02-18T06:16:33.668Z,9.48
2023-02-18T06:18:35.246Z,10.05
2023-02-18T06:20:36.693Z,9.55
2023-02-18T06:22:38.162Z,6.97
2023-02-18T06:24:39.758Z,11.35
2023-02-18T06:26:41.361Z,6.05
2023-02-18T06:28:42.826Z,6.32
2023-02-18T06:30:45.403Z,8.55
2023-02-18T06:32:46.858Z,7.45
2023-02-18T06:34:48.330Z,12.55
2023-02-18T06:36:49.926Z,8.07
2023-02-18T06:38:51.693Z,12.75
2023-02-18T06:40:53.616Z,9.13
2023-02-18T06:42:55.167Z,13.43
2023-02-18T06:44:56.650Z,7.35
2023-02-18T06:46:58.158Z,6.50
2023-02-18T06:48:59.987Z,9.13
2023-02-18T06:51:01.532Z,9.07
2023-02-18T06:53:03.058Z,6.55
2023-02-18T06:55:05.844Z,6.00
2023-02-18T06:57:07.848Z,9.20
2023-02-18T06:59:09.494Z,10.38
2023-02-18T07:01:10.988Z,11.52
2023-02-18T07:03:14.527Z,6.25
2023-02-18T07:05:16.466Z,7.47
2023-02-18T07:07:17.958Z,10.48
2023-02-18T07:09:19.418Z,6.95
2023-02-18T07:11:20.897Z,10.43
2023-02-18T07:13:22.380Z,8.55
2023-02-18T07:15:24.458Z,7.97
2023-02-18T07:17:25.961Z,8.30
2023-02-18T07:19:27.422Z,7.25
2023-02-18T07:21:28.893Z,6.68
2023-02-18T07:23:30.458Z,10.98
2023-02-18T07:25:31.944Z,10.00
2023-02-18T07:27:33.424Z,12.82
2023-02-18T07:29:34.986Z,7.68
2023-02-18T07:31:38.401Z,11.90
2023-02-18T07:33:39.889Z,7.45
2023-02-18T07:35:41.401Z,8.95
2023-02-18T07:37:50.026Z,11.18
2023-02-18T07:39:51.521Z,16.15
2023-02-18T07:41:52.948Z,9.57
2023-02-18T07:43:54.394Z,13.88
2023-02-18T07:45:55.946Z,13.43
2023-02-18T07:47:57.412Z,18.35
2023-02-18T07:49:58.916Z,20.75
2023-02-18T07:52:00.996Z,18.23
2023-02-18T07:54:02.495Z,20.50
2023-02-18T07:56:05.390Z,19.73
2023-02-18T07:58:06.953Z,22.65
2023-02-18T08:00:08.799Z,24.77
2023-02-18T08:02:18.715Z,24.08
2023-02-18T08:04:20.310Z,29.13
2023-02-18T08:06:33.559Z,30.80
2023-02-18T08:08:37.141Z,25.48
2023-02-18T08:10:38.818Z,30.00
2023-02-18T08:12:40.301Z,26.85
2023-02-18T08:14:42.425Z,29.55
2023-02-18T08:16:43.965Z,28.85
2023-02-18T08:18:47.782Z,26.33
2023-02-18T08:20:50.449Z,25.83
2023-02-18T08:22:51.936Z,26.70
2023-02-18T08:24:56.718Z,27.95
2023-02-18T08:27:01.241Z,23.30
2023-02-18T08:29:03.447Z,23.83
2023-02-18T08:31:05.354Z,22.83
2023-02-18T08:33:06.917Z,19.92
2023-02-18T08:35:10.126Z,19.55
2023-02-18T08:37:11.612Z,21.13
2023-02-18T08:39:13.049Z,18.85
2023-02-18T08:41:14.904Z,14.80
2023-02-18T08:43:17.545Z,14.13
2023-02-18T08:45:19.175Z,16.73
2023-02-18T08:48:18.460Z,12.18
2023-02-18T08:49:42.151Z,10.32
2023-02-18T08:51:43.713Z,9.30
2023-02-18T08:53:47.177Z,9.20
2023-02-18T08:55:48.812Z,8.23
2023-02-18T08:57:50.544Z,7.93
2023-02-18T08:59:51.985Z,8.98
2023-02-18T09:01:53.534Z,6.88
2023-02-18T09:03:55.041Z,5.78
2023-02-18T09:05:57.306Z,6.80
2023-02-18T09:07:58.867Z,5.45
2023-02-18T09:10:00.332Z,4.90
2023-02-18T09:12:01.877Z,4.82
2023-02-18T09:14:03.737Z,4.43
2023-02-18T09:16:08.693Z,4.50
2023-02-18T09:18:10.189Z,4.30
2023-02-18T09:20:12.016Z,4.13
2023-02-18T09:22:13.528Z,3.55
2023-02-18T09:24:15.327Z,3.40
2023-02-18T09:26:21.387Z,3.67
2023-02-18T09:28:23.387Z,2.42
2023-02-18T09:30:24.881Z,3.90
2023-02-18T09:32:34.466Z,3.30
2023-02-18T09:34:36.427Z,2.95
2023-02-18T09:36:39.413Z,3.20
2023-02-18T09:38:40.909Z,2.80
2023-02-18T09:40:47.160Z,3.00
2023-02-18T09:42:48.870Z,2.90
2023-02-18T09:44:58.346Z,2.95
2023-02-18T09:47:03.675Z,3.03
2023-02-18T09:49:14.394Z,3.13
2023-02-18T09:51:16.973Z,3.60
2023-02-18T09:53:18.863Z,3.47
2023-02-18T09:55:20.529Z,5.28
2023-02-18T09:57:41.337Z,3.20
2023-02-18T09:59:45.032Z,3.30
2023-02-18T10:01:49.356Z,3.97
2023-02-18T10:03:51.628Z,4.30
2023-02-18T10:06:02.992Z,3.63
2023-02-18T10:08:11.592Z,3.90
2023-02-18T10:10:46.472Z,4.05
2023-02-18T10:12:48.908Z,3.88
2023-02-18T10:14:59.041Z,3.38
2023-02-18T10:17:00.513Z,3.90
2023-02-18T10:19:18.603Z,3.65
2023-02-18T10:21:24.274Z,5.28
2023-02-18T10:23:26.364Z,3.88
2023-02-18T10:25:29.497Z,3.95
2023-02-18T10:27:33.867Z,4.82
2023-02-18T10:29:36.033Z,5.18
2023-02-18T10:31:43.032Z,5.53
2023-02-18T10:33:58.352Z,4.28
2023-02-18T10:36:25.730Z,5.97
2023-02-18T10:38:29.950Z,6.88
2023-02-18T10:40:46.549Z,5.63
2023-02-18T10:43:23.049Z,8.18
2023-02-18T10:45:30.566Z,4.03
2023-02-18T10:47:39.200Z,6.75
2023-02-18T10:50:02.964Z,3.92
2023-02-18T10:52:06.739Z,4.10
2023-02-18T10:54:08.505Z,3.42
2023-02-18T10:56:32.787Z,3.88
2023-02-18T10:58:46.023Z,3.95
2023-02-18T11:00:47.539Z,2.75
2023-02-18T11:03:03.901Z,3.50
2023-02-18T11:05:18.541Z,2.80
2023-02-18T11:07:26.180Z,3.70
2023-02-18T11:09:45.716Z,4.45
2023-02-18T11:11:53.683Z,4.90
2023-02-18T11:14:05.367Z,2.53
2023-02-18T11:16:09.332Z,1.42
2023-02-18T11:18:36.728Z,1.40
2023-02-18T11:20:39.182Z,1.80
2023-02-18T11:22:41.563Z,3.10
2023-02-18T11:24:48.185Z,1.73
2023-02-18T11:26:49.712Z,2.70
2023-02-18T11:28:57.678Z,1.40
2023-02-18T11:31:02.057Z,1.20
2023-02-18T11:33:10.087Z,1.00
2023-02-18T11:35:25.056Z,1.10
2023-02-18T11:37:26.648Z,6.40
2023-02-18T11:39:29.483Z,1.75
2023-02-18T11:41:36.021Z,1.73
2023-02-18T11:43:42.858Z,1.20
2023-02-18T11:45:44.695Z,1.17
2023-02-18T11:47:59.596Z,1.55
2023-02-18T11:50:10.406Z,0.90
2023-02-18T11:52:23.827Z,1.35
2023-02-18T11:54:30.016Z,0.80
2023-02-18T11:56:34.705Z,1.05
2023-02-18T11:58:43.748Z,1.20
2023-02-18T12:00:47.751Z,3.80
2023-02-18T12:02:52.028Z,2.63
2023-02-18T12:05:17.432Z,2.55
2023-02-18T12:07:39.407Z,2.70
2023-02-18T12:09:48.037Z,2.42
2023-02-18T12:12:02.802Z,2.85
2023-02-18T12:14:08.912Z,3.92
2023-02-18T12:16:15.499Z,3.88
2023-02-18T12:18:29.141Z,3.78
2023-02-18T12:20:52.575Z,4.38
2023-02-18T12:22:58.781Z,4.88
2023-02-18T12:25:22.162Z,4.43
2023-02-18T12:27:48.939Z,5.70
2023-02-18T12:30:18.501Z,5.30
2023-02-18T12:32:27.025Z,3.35
2023-02-18T12:34:41.278Z,2.05
2023-02-18T12:37:04.084Z,2.67
2023-02-18T12:39:17.274Z,5.97
2023-02-18T12:41:40.193Z,7.15
2023-02-18T12:43:56.627Z,4.75
2023-02-18T12:46:21.248Z,6.65
2023-02-18T12:48:41.054Z,7.97
2023-02-18T12:51:32.814Z,7.00
2023-02-18T12:54:06.006Z,8.05
2023-02-18T12:56:33.593Z,5.38
2023-02-18T12:59:01.223Z,7.65
2023-02-18T13:01:21.429Z,6.73
2023-02-18T13:03:34.779Z,4.60
2023-02-18T13:06:09.621Z,11.02
2023-02-18T13:08:26.790Z,7.90
2023-02-18T13:10:46.799Z,5.35
2023-02-18T13:12:57.222Z,7.25
2023-02-18T13:15:18.570Z,6.85
2023-02-18T13:17:21.299Z,8.18
2023-02-18T13:19:36.705Z,4.68
2023-02-18T13:21:40.613Z,6.47
2023-02-18T13:24:09.900Z,5.35
2023-02-18T13:26:14.857Z,7.63
2023-02-18T13:28:28.585Z,10.43
2023-02-18T13:30:48.316Z,16.33
2023-02-18T13:33:19.635Z,13.90
2023-02-18T13:35:40.089Z,11.60
2023-02-18T13:37:47.211Z,6.50
2023-02-18T13:39:53.828Z,10.93
2023-02-18T13:42:12.760Z,9.15
2023-02-18T13:44:16.956Z,13.65
2023-02-18T13:46:21.775Z,8.23
2023-02-18T13:48:28.201Z,12.88
2023-02-18T13:50:33.016Z,10.18
2023-02-18T13:52:34.497Z,9.98
2023-02-18T13:54:46.909Z,10.13
2023-02-18T13:56:55.318Z,9.45
2023-02-18T13:59:09.351Z,10.95
2023-02-18T14:01:11.023Z,11.38
2023-02-18T14:03:49.770Z,8.98
2023-02-18T14:05:56.040Z,7.20
2023-02-18T14:08:34.888Z,12.25
2023-02-18T14:10:37.497Z,19.17
2023-02-18T14:13:00.416Z,21.80
2023-02-18T14:15:02.005Z,10.25
2023-02-18T14:17:31.495Z,10.88
2023-02-18T14:19:32.939Z,12.82
2023-02-18T14:21:40.547Z,11.32
2023-02-18T14:23:59.845Z,14.00
2023-02-18T14:26:32.276Z,11.60
2023-02-18T14:28:33.688Z,14.82
2023-02-18T14:30:45.056Z,15.73
2023-02-18T14:32:47.085Z,22.02
2023-02-18T14:35:08.610Z,12.68
2023-02-18T14:37:38.825Z,14.73
2023-02-18T14:40:01.709Z,7.22
2023-02-18T14:42:13.369Z,11.27
2023-02-18T14:44:50.332Z,7.28
2023-02-18T14:47:22.902Z,13.15
2023-02-18T14:49:55.437Z,13.57
2023-02-18T14:51:58.280Z,12.55
2023-02-18T14:54:05.721Z,9.68
2023-02-18T14:56:11.258Z,9.18
2023-02-18T14:58:38.593Z,14.20
2023-02-18T15:00:42.764Z,14.48
2023-02-18T15:02:44.251Z,11.38
2023-02-18T15:04:46.101Z,7.65
2023-02-18T15:06:58.941Z,8.13
2023-02-18T15:09:02.063Z,11.45
2023-02-18T15:11:07.492Z,9.18
2023-02-18T15:13:21.127Z,10.07
2023-02-18T15:15:25.052Z,15.20
2023-02-18T15:17:27.707Z,13.63
2023-02-18T15:19:38.158Z,8.60
2023-02-18T15:21:43.261Z,11.07
2023-02-18T15:23:44.793Z,11.45
2023-02-18T15:25:51.348Z,11.57
2023-02-18T15:27:52.905Z,12.13
2023-02-18T15:30:03.859Z,6.43
2023-02-18T15:32:16.804Z,8.98
2023-02-18T15:34:24.117Z,9.85
2023-02-18T15:36:26.215Z,11.13
2023-02-18T15:38:28.466Z,8.65
2023-02-18T15:40:36.998Z,10.90
2023-02-18T15:42:38.712Z,12.35
2023-02-18T15:44:47.349Z,12.90
2023-02-18T15:46:49.177Z,17.33
2023-02-18T15:48:53.637Z,9.07
2023-02-18T15:51:02.746Z,9.50
2023-02-18T15:53:15.162Z,9.38
2023-02-18T15:55:30.179Z,8.48
2023-02-18T15:57:33.367Z,10.75
2023-02-18T15:59:42.687Z,10.00
2023-02-18T16:01:49.138Z,10.18
2023-02-18T16:03:50.701Z,10.63
2023-02-18T16:06:10.261Z,7.15
2023-02-18T16:08:17.406Z,7.82
2023-02-18T16:10:25.554Z,5.65
2023-02-18T16:12:31.298Z,7.27
2023-02-18T16:14:34.495Z,6.97
2023-02-18T16:16:39.549Z,8.02
2023-02-18T16:18:41.658Z,5.38
2023-02-18T16:20:54.475Z,8.38
2023-02-18T16:23:01.841Z,4.82
2023-02-18T16:25:23.382Z,4.70
2023-02-18T16:27:33.208Z,6.20
2023-02-18T16:29:36.387Z,4.55
2023-02-18T16:31:38.005Z,5.85
2023-02-18T16:33:39.531Z,4.40
2023-02-18T16:35:49.549Z,5.32
2023-02-18T16:37:53.410Z,5.00
2023-02-18T16:39:55.298Z,7.35
2023-02-18T16:41:56.783Z,4.82
2023-02-18T16:43:58.245Z,9.60
2023-02-18T16:46:10.399Z,5.70
2023-02-18T16:48:21.058Z,7.22
2023-02-18T16:50:22.792Z,4.63
2023-02-18T16:52:24.248Z,7.55
2023-02-18T16:54:28.464Z,10.00
2023-02-18T16:56:33.180Z,4.40
2023-02-18T16:58:34.615Z,8.95
2023-02-18T17:00:36.347Z,6.68
2023-02-18T17:02:37.899Z,5.85
2023-02-18T17:04:39.351Z,15.50
2023-02-18T17:06:41.451Z,11.60
2023-02-18T17:08:42.970Z,5.20
2023-02-18T17:10:46.432Z,7.72
2023-02-18T17:12:47.928Z,9.10
2023-02-18T17:14:49.377Z,8.23
2023-02-18T17:16:53.420Z,12.07
2023-02-18T17:18:54.928Z,8.35
2023-02-18T17:20:57.238Z,6.70
2023-02-18T17:22:59.703Z,7.82
2023-02-18T17:25:01.143Z,8.98
2023-02-18T17:27:02.615Z,9.65
2023-02-18T17:29:05.548Z,7.65
2023-02-18T17:31:12.362Z,8.35
2023-02-18T17:33:16.792Z,15.95
2023-02-18T17:35:22.022Z,13.57
2023-02-18T17:37:23.475Z,7.93
2023-02-18T17:39:26.014Z,15.30
2023-02-18T17:41:27.626Z,8.63
2023-02-18T17:43:29.343Z,7.40
2023-02-18T17:45:42.101Z,6.28
2023-02-18T17:47:43.577Z,5.30
2023-02-18T17:49:45.109Z,6.60
2023-02-18T17:51:46.756Z,9.05
2023-02-18T17:53:48.183Z,5.15
2023-02-18T17:55:50.102Z,5.20
2023-02-18T17:57:53.175Z,5.45
2023-02-18T17:59:56.751Z,5.25
2023-02-18T18:01:59.500Z,4.03
2023-02-18T18:04:01.835Z,5.03
2023-02-18T18:06:04.556Z,6.22
2023-02-18T18:08:07.191Z,3.08
2023-02-18T18:10:09.682Z,6.82
2023-02-18T18:12:15.891Z,5.38
2023-02-18T18:14:17.341Z,5.32
2023-02-18T18:16:19.872Z,5.30
2023-02-18T18:18:22.247Z,5.35
2023-02-18T18:20:26.346Z,4.90
2023-02-18T18:22:27.794Z,5.57
2023-02-18T18:24:29.282Z,5.25
2023-02-18T18:26:30.855Z,9.65
2023-02-18T18:28:33.376Z,3.00
2023-02-18T18:30:41.671Z,6.88
2023-02-18T18:32:43.216Z,6.55
2023-02-18T18:34:48.989Z,2.17
2023-02-18T18:36:50.723Z,2.63
2023-02-18T18:38:52.852Z,5.28
2023-02-18T18:40:55.438Z,4.82
2023-02-18T18:42:58.334Z,5.00
2023-02-18T18:44:59.786Z,4.63
2023-02-18T18:47:01.335Z,4.32
2023-02-18T18:49:02.824Z,8.25
2023-02-18T18:51:04.896Z,8.13
2023-02-18T18:53:06.889Z,6.63
2023-02-18T18:55:27.625Z,1.88
2023-02-18T18:57:29.481Z,7.40
2023-02-18T18:59:30.917Z,7.25
2023-02-18T19:01:33.109Z,4.63
2023-02-18T19:03:35.561Z,3.45
2023-02-18T19:05:40.780Z,7.22
2023-02-18T19:07:42.233Z,4.72
2023-02-18T19:09:43.705Z,3.03
2023-02-18T19:11:45.172Z,5.90
2023-02-18T19:13:46.707Z,7.95
2023-02-18T19:15:49.951Z,6.90
2023-02-18T19:17:53.726Z,5.50
2023-02-18T19:19:55.321Z,2.53
2023-02-18T19:21:56.796Z,6.18
2023-02-18T19:23:59.774Z,4.47
2023-02-18T19:26:01.269Z,6.93
2023-02-18T19:28:03.752Z,5.35
2023-02-18T19:30:06.794Z,6.72
2023-02-18T19:32:08.345Z,11.13
2023-02-18T19:34:09.822Z,8.50
2023-02-18T19:36:11.882Z,5.47
2023-02-18T19:38:16.231Z,8.55
2023-02-18T19:40:20.830Z,6.85
2023-02-18T19:42:22.312Z,7.50
2023-02-18T19:44:23.760Z,5.53
2023-02-18T19:46:25.259Z,6.93
2023-02-18T19:48:26.807Z,9.18
2023-02-18T19:50:31.168Z,7.40
2023-02-18T19:52:32.896Z,10.75
2023-02-18T19:54:34.394Z,7.50
2023-02-18T19:56:35.836Z,9.00
2023-02-18T19:58:40.130Z,7.28
2023-02-18T20:00:43.641Z,9.23
2023-02-18T20:02:45.369Z,4.53
2023-02-18T20:04:47.192Z,7.45
2023-02-18T20:06:48.647Z,8.73
2023-02-18T20:08:50.118Z,10.40
2023-02-18T20:10:58.796Z,6.20
2023-02-18T20:13:00.370Z,10.52
2023-02-18T20:15:02.366Z,8.40
2023-02-18T20:17:07.379Z,5.28
2023-02-18T20:19:08.840Z,9.98
2023-02-18T20:21:12.197Z,9.63
2023-02-18T20:23:14.155Z,7.80
2023-02-18T20:25:15.696Z,7.45
2023-02-18T20:27:17.220Z,4.40
2023-02-18T20:29:21.676Z,7.97
2023-02-18T20:31:23.287Z,6.50
2023-02-18T20:33:24.905Z,5.47
2023-02-18T20:35:26.398Z,5.32
2023-02-18T20:37:27.965Z,8.68
2023-02-18T20:39:29.452Z,6.30
2023-02-18T20:41:30.977Z,7.63
2023-02-18T20:43:32.970Z,8.23
2023-02-18T20:45:34.489Z,7.40
2023-02-18T20:47:35.949Z,4.88
2023-02-18T20:49:38.406Z,8.40
2023-02-18T20:51:39.882Z,6.43
2023-02-18T20:53:43.276Z,5.75
2023-02-18T20:55:48.154Z,4.00
2023-02-18T20:57:49.672Z,5.97
2023-02-18T20:59:51.187Z,8.50
2023-02-18T21:01:52.950Z,2.50
2023-02-18T21:03:54.417Z,8.18
2023-02-18T21:06:11.122Z,5.90
2023-02-18T21:08:12.550Z,6.88
2023-02-18T21:10:14.054Z,4.70
2023-02-18T21:12:15.498Z,17.42
2023-02-18T21:14:16.995Z,7.15
2023-02-18T21:16:20.826Z,7.03
2023-02-18T21:18:22.536Z,9.23
2023-02-18T21:20:24.024Z,8.25
2023-02-18T21:22:25.485Z,5.07
2023-02-18T21:24:27.555Z,6.45
2023-02-18T21:26:29.365Z,5.32
2023-02-18T21:28:31.116Z,3.30
2023-02-18T21:30:38.430Z,12.02
2023-02-18T21:32:39.898Z,5.25
2023-02-18T21:34:41.481Z,9.73
2023-02-18T21:36:44.163Z,7.10
2023-02-18T21:38:50.627Z,6.55
2023-02-18T21:40:52.132Z,11.73
2023-02-18T21:42:53.718Z,6.75
2023-02-18T21:44:56.493Z,4.68
2023-02-18T21:46:57.974Z,7.18
2023-02-18T21:49:02.152Z,7.65
2023-02-18T21:51:03.739Z,3.08
2023-02-18T21:53:05.181Z,3.00
2023-02-18T21:55:07.814Z,6.90
2023-02-18T21:57:13.959Z,8.07
2023-02-18T21:59:16.063Z,5.40
2023-02-18T22:01:17.623Z,2.45
2023-02-18T22:03:19.139Z,7.15
2023-02-18T22:05:21.402Z,3.13
2023-02-18T22:07:27.435Z,9.45
2023-02-18T22:09:29.483Z,4.82
2023-02-18T22:11:31.762Z,3.67
2023-02-18T22:13:33.208Z,2.03
2023-02-18T22:15:34.655Z,4.35
2023-02-18T22:17:36.202Z,3.05
2023-02-18T22:19:37.791Z,4.15
2023-02-18T22:21:39.727Z,7.55
2023-02-18T22:23:41.327Z,4.68
2023-02-18T22:25:42.766Z,3.90
2023-02-18T22:27:44.240Z,3.00
2023-02-18T22:29:47.335Z,2.72
2023-02-18T22:31:49.707Z,3.88
2023-02-18T22:33:56.395Z,4.18
2023-02-18T22:36:04.202Z,2.75
2023-02-18T22:38:05.661Z,2.60
2023-02-18T22:40:07.382Z,1.77
2023-02-18T22:42:08.914Z,2.20
2023-02-18T22:44:16.010Z,1.60
2023-02-18T22:46:18.303Z,3.63
2023-02-18T22:48:20.131Z,3.03
2023-02-18T22:50:21.619Z,1.85
2023-02-18T22:52:23.100Z,2.22
2023-02-18T22:54:24.544Z,1.30
2023-02-18T22:56:27.903Z,1.40
2023-02-18T22:58:29.601Z,3.40
2023-02-18T23:00:31.057Z,3.97
2023-02-18T23:02:32.508Z,4.68
2023-02-18T23:04:34.009Z,6.22
2023-02-18T23:06:37.009Z,5.78
2023-02-18T23:08:38.532Z,5.20
2023-02-18T23:10:39.973Z,6.50
2023-02-18T23:12:41.502Z,6.35
2023-02-18T23:14:43.072Z,5.15
2023-02-18T23:17:13.949Z,5.70
2023-02-18T23:19:15.414Z,8.40
2023-02-18T23:21:22.441Z,4.75
2023-02-18T23:23:23.971Z,5.55
2023-02-18T23:25:25.407Z,6.50
2023-02-18T23:27:27.689Z,6.32
2023-02-18T23:29:29.202Z,5.25
2023-02-18T23:31:30.905Z,7.68
2023-02-18T23:33:32.425Z,5.72
2023-02-18T23:35:33.896Z,5.40
2023-02-18T23:37:54.075Z,5.60
2023-02-18T23:39:55.511Z,5.55
2023-02-18T23:41:57.206Z,5.07
2023-02-18T23:43:58.711Z,5.40
2023-02-18T23:46:00.307Z,6.03
2023-02-18T23:48:01.788Z,6.55
2023-02-18T23:50:03.389Z,7.50
2023-02-18T23:52:05.047Z,5.80
2023-02-18T23:54:06.568Z,7.78
2023-02-18T23:56:15.181Z,5.63
2023-02-18T23:58:16.654Z,8.80
